Time;durP1;ratioP1;P1;durP2;ratioP2;P2;SDS_P1;SDS_P2;PMS_P1;PMS_P2;Temp;Humidity;BMP_temperature;BMP_pressure;BME280_temperature;BME280_humidity;BME280_pressure;Samples;Min_cycle;Max_cycle;Signal;HPM_P1;HPM_P2
2021/12/27 14:39:59;;;;;;;;;;;-5.90;99.90;;;;;;5112160;27;19934;-90
2021/12/27 14:42:26;;;;;;;;;;;-5.80;99.90;;;;;;5109447;28;19994;-91
2021/12/27 14:44:53;;;;;;;;;;;-5.80;99.90;;;;;;5100905;28;19908;-92
2021/12/27 14:47:20;;;;;;;;;;;-5.70;99.90;;;;;;5103372;28;19912;-91
2021/12/27 14:49:46;;;;;;;;;;;-5.60;99.90;;;;;;5093163;28;19915;-90
2021/12/27 14:52:12;;;;;;;;;;;-5.50;99.90;;;;;;5095439;28;19908;-94
2021/12/27 14:54:37;;;;;;;;;;;-5.40;99.90;;;;;;5113363;28;19912;-92
2021/12/27 14:57:03;;;;;;;;;;;-5.30;99.90;;;;;;5102755;28;20280;-93
2021/12/27 14:59:29;;;;;;;;;;;-5.20;99.90;;;;;;5097519;28;20011;-93
2021/12/27 15:01:54;;;;;;;;;;;-5.10;99.90;;;;;;5095023;28;19915;-92
2021/12/27 15:04:20;;;;;;;;;;;-5.00;99.90;;;;;;5108390;28;19965;-91
2021/12/27 15:06:46;;;;;;;;;;;-5.00;99.90;;;;;;5100480;28;19912;-91
2021/12/27 15:09:11;;;;;;;;;;;-4.90;99.90;;;;;;5100876;28;19995;-89
2021/12/27 15:11:37;;;;;;;;;;;-4.90;99.90;;;;;;5101152;28;19955;-89
2021/12/27 15:14:02;;;;;;;;;;;-4.90;99.90;;;;;;5100569;28;19911;-88
2021/12/27 15:16:29;;;;;;;;;;;-4.90;99.90;;;;;;5097158;28;19918;-90
2021/12/27 15:18:54;;;;;;;;;;;-4.90;99.90;;;;;;5093270;28;19913;-92
2021/12/27 15:21:20;;;;;;;;;;;-4.90;99.90;;;;;;5106660;28;20264;-89
2021/12/27 15:23:48;;;;;;;;;;;-4.80;99.90;;;;;;5100984;28;19912;-89
2021/12/27 15:26:14;;;;;;;;;;;-4.80;99.90;;;;;;5105261;28;19912;-89
2021/12/27 15:28:40;;;;;;;;;;;-4.80;99.90;;;;;;5122920;28;19915;-90
2021/12/27 15:31:05;;;;;;;;;;;-4.80;99.90;;;;;;5108637;28;20374;-89
2021/12/27 15:33:31;;;;;;;;;;;-4.80;99.90;;;;;;5106680;28;19923;-90
2021/12/27 15:35:58;;;;;;;;;;;-4.80;99.90;;;;;;5101913;28;19912;-90
2021/12/27 15:38:24;;;;;;;;;;;-4.80;99.90;;;;;;5100852;28;19924;-89
2021/12/27 15:40:50;;;;;;;;;;;-4.80;99.90;;;;;;5101961;28;20015;-89
2021/12/27 15:43:15;;;;;;;;;;;-4.80;99.90;;;;;;5100981;28;19908;-89
2021/12/27 15:45:41;;;;;;;;;;;-4.80;99.90;;;;;;5107450;28;19912;-91
2021/12/27 15:48:08;;;;;;;;;;;-4.80;99.90;;;;;;5106809;28;19918;-88
2021/12/27 15:50:37;;;;;;;;;;;-4.70;99.90;;;;;;5095657;28;19958;-90
2021/12/27 15:53:05;;;;;;;;;;;-4.70;99.90;;;;;;5089357;28;19912;-90
2021/12/27 15:55:31;;;;;;;;;;;-4.70;99.90;;;;;;5090248;28;19908;-90
2021/12/27 15:57:57;;;;;;;;;;;-4.70;99.90;;;;;;5088841;28;20429;-88
2021/12/27 16:00:23;;;;;;;;;;;-4.80;99.90;;;;;;5088922;28;19912;-90
2021/12/27 16:02:49;;;;;;;;;;;-4.80;99.90;;;;;;5092546;28;19951;-91
2021/12/27 16:05:15;;;;;;;;;;;-4.90;99.90;;;;;;5088294;28;19951;-92
2021/12/27 16:07:44;;;;;;;;;;;-4.90;99.90;;;;;;5089001;28;19909;-91
2021/12/27 16:10:09;;;;;;;;;;;-4.90;99.90;;;;;;5085296;28;19916;-91
2021/12/27 16:12:35;;;;;;;;;;;-4.90;99.90;;;;;;5092085;28;19916;-91
2021/12/27 16:15:02;;;;;;;;;;;-5.00;99.90;;;;;;5089831;28;20007;-90
2021/12/27 16:17:27;;;;;;;;;;;-5.00;99.90;;;;;;5096539;28;19987;-91
2021/12/27 16:19:53;;;;;;;;;;;-5.00;99.90;;;;;;5086610;28;20058;-91
2021/12/27 16:22:19;;;;;;;;;;;-5.00;99.90;;;;;;5089026;28;20393;-92
2021/12/27 16:24:44;;;;;;;;;;;-5.00;99.90;;;;;;5092961;28;19912;-92
2021/12/27 16:27:12;;;;;;;;;;;-5.00;99.90;;;;;;5095008;28;20271;-91
2021/12/27 16:29:38;;;;;;;;;;;-5.00;99.90;;;;;;5095397;28;20013;-91
2021/12/27 16:32:04;;;;;;;;;;;-5.00;99.90;;;;;;5096766;28;20352;-91
2021/12/27 16:34:29;;;;;;;;;;;-5.10;99.90;;;;;;5094961;28;19912;-90
2021/12/27 16:36:55;;;;;;;;;;;-5.10;99.90;;;;;;5095658;28;19912;-91
2021/12/27 16:39:21;;;;;;;;;;;-5.10;99.90;;;;;;5111016;28;20363;-91
2021/12/27 16:41:47;;;;;;;;;;;-5.10;99.90;;;;;;5097659;28;19973;-92
2021/12/27 16:44:12;;;;;;;;;;;-5.10;99.90;;;;;;5097758;28;19916;-90
2021/12/27 16:46:38;;;;;;;;;;;-5.10;99.90;;;;;;5113485;28;19926;-90
2021/12/27 16:49:05;;;;;;;;;;;-5.20;99.90;;;;;;5095513;28;20360;-89
2021/12/27 16:51:30;;;;;;;;;;;-5.20;99.90;;;;;;5115326;28;20279;-89
2021/12/27 16:53:56;;;;;;;;;;;-5.20;99.90;;;;;;5115371;27;19912;-88
2021/12/27 16:56:21;;;;;;;;;;;-5.20;99.90;;;;;;5092969;28;20373;-88
2021/12/27 16:58:47;;;;;;;;;;;-5.20;99.90;;;;;;5095836;28;19923;-91
2021/12/27 17:01:12;;;;;;;;;;;-5.30;99.90;;;;;;5111498;27;19913;-91
2021/12/27 17:03:38;;;;;;;;;;;-5.40;99.90;;;;;;5091977;28;20364;-93
2021/12/27 17:06:04;;;;;;;;;;;-5.40;99.90;;;;;;5094176;28;20360;-92
2021/12/27 17:08:29;;;;;;;;;;;-5.40;99.90;;;;;;5082339;28;19973;-92
2021/12/27 17:10:55;;;;;;;;;;;-5.40;99.90;;;;;;5084878;28;19916;-92
2021/12/27 17:13:20;;;;;;;;;;;-5.40;99.90;;;;;;5092348;28;19981;-92
2021/12/27 17:15:47;;;;;;;;;;;-5.50;99.90;;;;;;5093848;28;19915;-89
2021/12/27 17:18:13;;;;;;;;;;;-5.50;99.90;;;;;;5091872;28;19922;-88
2021/12/27 17:20:43;;;;;;;;;;;-5.50;99.90;;;;;;5107899;28;19912;-88
2021/12/27 17:23:09;;;;;;;;;;;-5.50;99.90;;;;;;5106273;28;19912;-88
2021/12/27 17:25:35;;;;;;;;;;;-5.50;99.90;;;;;;5093883;28;20370;-87
2021/12/27 17:28:01;;;;;;;;;;;-5.60;99.90;;;;;;5110506;28;19912;-88
2021/12/27 17:30:28;;;;;;;;;;;-5.60;99.90;;;;;;5108564;28;19960;-89
2021/12/27 17:32:54;;;;;;;;;;;-5.60;99.90;;;;;;5094507;28;19912;-89
2021/12/27 17:35:20;;;;;;;;;;;-5.70;99.90;;;;;;5105859;28;19916;-88
2021/12/27 17:37:45;;;;;;;;;;;-5.60;99.90;;;;;;5101037;28;19911;-90
2021/12/27 17:40:13;;;;;;;;;;;-5.70;99.90;;;;;;5089980;28;19918;-90
2021/12/27 17:42:39;;;;;;;;;;;-5.60;99.90;;;;;;5088494;28;20064;-89
2021/12/27 17:45:05;;;;;;;;;;;-5.60;99.90;;;;;;5108359;28;20395;-89
2021/12/27 17:47:32;;;;;;;;;;;-5.70;99.90;;;;;;5087870;28;20026;-89
2021/12/27 17:49:58;;;;;;;;;;;-5.60;99.90;;;;;;5089371;28;19911;-90
2021/12/27 17:52:24;;;;;;;;;;;-5.60;99.90;;;;;;5106296;28;19914;-89
2021/12/27 17:54:49;;;;;;;;;;;-5.60;99.90;;;;;;5081855;28;19916;-89
2021/12/27 17:57:15;;;;;;;;;;;-5.60;99.90;;;;;;5089881;28;19915;-88
2021/12/27 17:59:43;;;;;;;;;;;-5.60;99.90;;;;;;5091003;28;19923;-92
2021/12/27 18:02:10;;;;;;;;;;;-5.60;99.90;;;;;;5112174;27;19920;-92
2021/12/27 18:04:35;;;;;;;;;;;-5.50;99.90;;;;;;5095519;28;19912;-91
2021/12/27 18:07:01;;;;;;;;;;;-5.50;99.90;;;;;;5093562;28;19960;-91
2021/12/27 18:09:26;;;;;;;;;;;-5.50;99.90;;;;;;5092588;28;19920;-90
2021/12/27 18:11:52;;;;;;;;;;;-5.50;99.90;;;;;;5088397;28;19908;-91
2021/12/27 18:14:18;;;;;;;;;;;-5.50;99.90;;;;;;5093419;28;19955;-91
2021/12/27 18:16:44;;;;;;;;;;;-5.50;99.90;;;;;;5111665;28;20397;-92
2021/12/27 18:19:10;;;;;;;;;;;-5.50;99.90;;;;;;5089537;28;20054;-91
2021/12/27 18:21:36;;;;;;;;;;;-5.50;99.90;;;;;;5106610;28;19916;-90
2021/12/27 18:24:06;;;;;;;;;;;-5.50;99.90;;;;;;5088658;28;19912;-90
2021/12/27 18:26:33;;;;;;;;;;;-5.50;99.90;;;;;;5084277;28;19943;-91
2021/12/27 18:28:58;;;;;;;;;;;-5.50;99.90;;;;;;5087016;28;19915;-92
2021/12/27 18:31:24;;;;;;;;;;;-5.50;99.90;;;;;;5083142;28;20372;-90
2021/12/27 18:33:49;;;;;;;;;;;-5.60;99.90;;;;;;5104589;28;19912;-92
2021/12/27 18:36:15;;;;;;;;;;;-5.60;99.90;;;;;;5090789;28;20015;-91
2021/12/27 18:38:41;;;;;;;;;;;-5.60;99.90;;;;;;5110588;28;19932;-90
2021/12/27 18:41:06;;;;;;;;;;;-5.70;99.90;;;;;;5109777;28;20275;-91
2021/12/27 18:43:32;;;;;;;;;;;-5.60;99.90;;;;;;5089255;28;19935;-90
2021/12/27 18:45:59;;;;;;;;;;;-5.60;99.90;;;;;;5106351;28;20295;-90
2021/12/27 18:48:25;;;;;;;;;;;-5.50;99.90;;;;;;5112720;28;19911;-93
2021/12/27 18:50:50;;;;;;;;;;;-5.60;99.90;;;;;;5092968;28;19935;-90
2021/12/27 18:53:16;;;;;;;;;;;-5.50;99.90;;;;;;5106906;28;20355;-91
2021/12/27 18:55:42;;;;;;;;;;;-5.60;99.90;;;;;;5110626;28;20020;-91
2021/12/27 18:58:08;;;;;;;;;;;-5.60;99.90;;;;;;5109027;28;19923;-91
2021/12/27 19:00:38;;;;;;;;;;;-5.60;99.90;;;;;;5100235;28;19912;-93
2021/12/27 19:03:04;;;;;;;;;;;-5.60;99.90;;;;;;5093150;28;19912;-90
2021/12/27 19:05:31;;;;;;;;;;;-5.60;99.90;;;;;;5107601;28;20271;-90
2021/12/27 19:07:57;;;;;;;;;;;-5.50;99.90;;;;;;5112092;28;19918;-90
2021/12/27 19:10:22;;;;;;;;;;;-5.50;99.90;;;;;;5090208;28;19916;-91
2021/12/27 19:12:48;;;;;;;;;;;-5.40;99.90;;;;;;5111388;28;19923;-92
2021/12/27 19:15:14;;;;;;;;;;;-5.40;99.90;;;;;;5094739;28;19912;-94
2021/12/27 19:17:40;;;;;;;;;;;-5.40;99.90;;;;;;5094180;28;20023;-91
2021/12/27 19:20:06;;;;;;;;;;;-5.40;99.90;;;;;;5090639;28;19994;-92
2021/12/27 19:22:32;;;;;;;;;;;-5.40;99.90;;;;;;5094158;28;19911;-91
2021/12/27 19:24:57;;;;;;;;;;;-5.40;99.90;;;;;;5108144;28;19911;-91
2021/12/27 19:27:23;;;;;;;;;;;-5.40;99.90;;;;;;5097165;28;19972;-92
2021/12/27 19:29:49;;;;;;;;;;;-5.40;99.90;;;;;;5098407;28;19941;-92
2021/12/27 19:32:14;;;;;;;;;;;-5.40;99.90;;;;;;5106109;28;19942;-93
2021/12/27 19:34:40;;;;;;;;;;;-5.40;99.90;;;;;;5097667;28;20264;-91
2021/12/27 19:37:05;;;;;;;;;;;-5.40;99.90;;;;;;5113451;28;19966;-92
2021/12/27 19:39:31;;;;;;;;;;;-5.40;99.90;;;;;;5114112;28;19961;-92
2021/12/27 19:41:59;;;;;;;;;;;-5.40;99.90;;;;;;5112903;28;19942;-88
2021/12/27 19:44:25;;;;;;;;;;;-5.40;99.90;;;;;;5110101;28;19912;-88
2021/12/27 19:46:51;;;;;;;;;;;-5.40;99.90;;;;;;5103526;28;19912;-87
2021/12/27 19:49:17;;;;;;;;;;;-5.40;99.90;;;;;;5113224;28;19995;-88
2021/12/27 19:51:43;;;;;;;;;;;-5.40;99.90;;;;;;5110848;28;20359;-88
2021/12/27 19:54:09;;;;;;;;;;;-5.30;99.90;;;;;;5094388;28;19916;-88
2021/12/27 19:56:34;;;;;;;;;;;-5.30;99.90;;;;;;5106708;28;20003;-93
2021/12/27 19:59:00;;;;;;;;;;;-5.30;99.90;;;;;;5092310;28;19923;-92
2021/12/27 20:01:26;;;;;;;;;;;-5.30;99.90;;;;;;5096962;28;19911;-92
2021/12/27 20:03:51;;;;;;;;;;;-5.30;99.90;;;;;;5095513;28;20340;-93
2021/12/27 20:06:17;;;;;;;;;;;-5.30;99.90;;;;;;5114129;28;19920;-92
2021/12/27 20:08:43;;;;;;;;;;;-5.30;99.90;;;;;;5094208;28;19912;-90
2021/12/27 20:11:08;;;;;;;;;;;-5.30;99.90;;;;;;5093886;28;20260;-91
2021/12/27 20:13:37;;;;;;;;;;;-5.30;99.90;;;;;;5096847;28;19912;-91
2021/12/27 20:16:03;;;;;;;;;;;-5.30;99.90;;;;;;5114284;28;19912;-89
2021/12/27 20:18:29;;;;;;;;;;;-5.20;99.90;;;;;;5090487;28;19931;-91
2021/12/27 20:20:55;;;;;;;;;;;-5.20;99.90;;;;;;5092121;28;19912;-90
2021/12/27 20:23:20;;;;;;;;;;;-5.10;99.90;;;;;;5096522;28;19919;-91
2021/12/27 20:25:46;;;;;;;;;;;-5.10;99.90;;;;;;5096539;28;19916;-91
2021/12/27 20:28:12;;;;;;;;;;;-5.00;99.90;;;;;;5099289;28;19912;-91
2021/12/27 20:30:38;;;;;;;;;;;-5.00;99.90;;;;;;5094606;28;19916;-91
2021/12/27 20:33:04;;;;;;;;;;;-4.90;99.90;;;;;;5097002;28;19934;-92
2021/12/27 20:35:31;;;;;;;;;;;-4.90;99.90;;;;;;5097530;28;20364;-90
2021/12/27 20:37:58;;;;;;;;;;;-4.80;99.90;;;;;;5111720;28;20041;-92
2021/12/27 20:40:24;;;;;;;;;;;-4.80;99.90;;;;;;5098049;28;19927;-90
2021/12/27 20:42:51;;;;;;;;;;;-4.80;99.90;;;;;;5106890;28;19916;-90
2021/12/27 20:45:17;;;;;;;;;;;-4.70;99.90;;;;;;5096376;28;19912;-90
2021/12/27 20:47:43;;;;;;;;;;;-4.70;99.90;;;;;;5092807;28;19911;-93
2021/12/27 20:50:10;;;;;;;;;;;-4.70;99.90;;;;;;5093836;28;19911;-91
2021/12/27 20:52:36;;;;;;;;;;;-4.70;99.90;;;;;;5095860;28;19912;-91
2021/12/27 20:55:02;;;;;;;;;;;-4.70;99.90;;;;;;5116808;28;19918;-92
2021/12/27 20:57:28;;;;;;;;;;;-4.70;99.90;;;;;;5098362;28;19956;-92
